Northern Power — A8TL6 — position and weather

sailwx.info

Track history (hours):
 
Tides and Currents Weather Stations Pressure Air Temp Water Temp Dewpoint Dewpoint Depression Visibility Wind Speed Wind Dir Waves Ship Positions

Northern Power

Last reported at 2014-Oct-06 09:33 UTC. Time now 2014-Oct-23 20:43 UTC.
Position N 01°13' E 103°30'.
Warning: this ship's position is 17 days out of date.

Length 264 m; draft 12.5 m.

Type: Ship (hazmat cat A). MMSI: 636091835.

Date/timePositionNaut miles runAvg speedWind from/ knotsBaromVisibWave heightAir tempDewpointWater temp
2014-Oct-06 09:33N 01°13' E 103°30'1716.7
2014-Oct-06 08:34N 01°09' E 103°46'1615.8
2014-Oct-06 07:34N 01°15' E 104°00'  
2014-Oct-02 01:26N 22°34' E 114°15'0 0.0
2014-Oct-02 00:12N 22°34' E 114°15'0 0.1
2014-Oct-01 23:30N 22°34' E 114°15'0 0.0
2014-Oct-01 22:30N 22°34' E 114°15'0 0.0
2014-Oct-01 21:24N 22°34' E 114°15'0 0.0
2014-Oct-01 20:30N 22°34' E 114°15'0 0.0
2014-Oct-01 19:06N 22°34' E 114°15'0 0.0
2014-Oct-01 18:30N 22°34' E 114°15'0 0.0
2014-Oct-01 17:30N 22°34' E 114°15'0 0.0
2014-Oct-01 16:18N 22°34' E 114°15'0 0.0
2014-Oct-01 15:24N 22°34' E 114°15'0 0.0
2014-Oct-01 14:24N 22°34' E 114°15'0 0.0
2014-Oct-01 13:30N 22°34' E 114°15'0 0.4
2014-Oct-01 12:30N 22°34' E 114°16'20913.8
2014-Sep-30 21:20N 23°35' E 117°53'1418.0
2014-Sep-30 20:33N 23°45' E 118°03'1817.7
2014-Sep-30 19:33N 23°59' E 118°15'1413.9
2014-Sep-30 18:33N 24°12' E 118°16'1312.9
2014-Sep-30 17:32N 24°23' E 118°07'9 9.1
2014-Sep-30 16:33N 24°27' E 117°58'0 0.0
2014-Sep-30 15:25N 24°27' E 117°58'0 0.0
2014-Sep-30 14:22N 24°27' E 117°58'0 0.0
2014-Sep-30 13:12N 24°27' E 117°58'0 0.0
2014-Sep-30 10:10N 24°27' E 117°58'0 0.0
2014-Sep-30 09:22N 24°27' E 117°58'0 0.0
2014-Sep-30 08:28N 24°27' E 117°58'0 0.0
2014-Sep-30 07:28N 24°27' E 117°58'2 2.4
2014-Sep-30 06:32N 24°26' E 118°01'1110.7
2014-Sep-30 05:33N 24°20' E 118°10'10 9.9
2014-Sep-30 04:33N 24°13' E 118°17'1413.8
2014-Sep-30 03:33N 24°17' E 118°32'1514.7
2014-Sep-30 02:33N 24°21' E 118°47'2014.9
2014-Sep-30 01:12N 24°29' E 119°07'1015.2
2014-Sep-30 00:33N 24°34' E 119°16'8714.6
2014-Sep-29 18:33N 25°31' E 120°30'26614.8
2014-Sep-29 00:33N 29°36' E 122°25'1313.2
2014-Sep-28 23:33N 29°47' E 122°16'1211.9
2014-Sep-28 22:34N 29°55' E 122°06'3 2.5
2014-Sep-28 21:22N 29°53' E 122°03'0 0.0
2014-Sep-28 20:31N 29°53' E 122°03'0 0.0
2014-Sep-28 19:07N 29°53' E 122°03'0 0.0
2014-Sep-28 18:25N 29°53' E 122°03'0 0.0
2014-Sep-28 16:31N 29°53' E 122°03'0 0.0
2014-Sep-28 14:07N 29°53' E 122°03'0 0.0
2014-Sep-28 13:31N 29°53' E 122°03'0 0.0
2014-Sep-28 12:25N 29°53' E 122°03'0 0.0
2014-Sep-28 11:33N 29°53' E 122°03'7 6.7
2014-Sep-28 10:33N 29°55' E 122°11'1111.3
2014-Sep-28 09:33N 29°45' E 122°18'5 0.7
2014-Sep-28 02:32N 29°45' E 122°24'9 8.9
2014-Sep-28 01:33N 29°46' E 122°34'1413.5
2014-Sep-28 00:33N 29°52' E 122°48'1513.3
2014-Sep-27 23:27N 29°59' E 123°03'1612.5
2014-Sep-27 22:10N 30°15' E 122°60'914.6
2014-Sep-27 21:33N 30°21' E 122°51'1414.3
2014-Sep-27 20:32N 30°28' E 122°37'1514.9
2014-Sep-27 19:33N 30°32' E 122°21'1414.0
2014-Sep-27 18:33N 30°36' E 122°05'0 0.2
2014-Sep-27 17:31N 30°36' E 122°05'0 0.0
2014-Sep-27 16:30N 30°36' E 122°05'0 0.0
2014-Sep-27 15:33N 30°36' E 122°05'0 0.0
2014-Sep-27 14:30N 30°36' E 122°05'0 0.0
2014-Sep-27 13:29N 30°36' E 122°05'0 0.0
2014-Sep-27 12:27N 30°36' E 122°05'0 0.0
2014-Sep-27 11:31N 30°36' E 122°05'0 0.0
2014-Sep-27 10:30N 30°36' E 122°05'0 0.0
2014-Sep-27 09:33N 30°36' E 122°05'0 0.3
2014-Sep-27 08:28N 30°36' E 122°05'1011.1
2014-Sep-27 07:33N 30°33' E 122°17'1111.2
2014-Sep-27 06:33N 30°31' E 122°29'1 0.9
2014-Sep-27 05:04N 30°30' E 122°31'0 0.1
2014-Sep-27 00:04N 30°30' E 122°31'0 0.0
2014-Sep-26 20:04N 30°30' E 122°31'0 0.0
2014-Sep-26 18:28N 30°30' E 122°31'0 0.1
2014-Sep-26 15:04N 30°30' E 122°31'0 0.1
2014-Sep-26 14:10N 30°30' E 122°31'0 0.2
2014-Sep-26 12:04N 30°30' E 122°31'0 0.0
2014-Sep-26 11:16N 30°30' E 122°31'  
Track history (hours):
 
Tides and Currents Weather Stations Pressure Air Temp Water Temp Dewpoint Dewpoint Depression Visibility Wind Speed Wind Dir Waves Ship Positions

Northern Power

Last reported at 2014-Oct-06 09:33 UTC. Time now 2014-Oct-23 20:43 UTC.
Position N 01°13' E 103°30'.
Warning: this ship's position is 17 days out of date.

Length 264 m; draft 12.5 m.

Type: Ship (hazmat cat A). MMSI: 636091835.

Date/timePositionNaut miles runAvg speedWind from/ knotsBaromVisibWave heightAir tempDewpointWater temp
2014-Oct-06 09:33N 01°13' E 103°30'1716.7
2014-Oct-06 08:34N 01°09' E 103°46'1615.8
2014-Oct-06 07:34N 01°15' E 104°00'  
2014-Oct-02 01:26N 22°34' E 114°15'0 0.0
2014-Oct-02 00:12N 22°34' E 114°15'0 0.1
2014-Oct-01 23:30N 22°34' E 114°15'0 0.0
2014-Oct-01 22:30N 22°34' E 114°15'0 0.0
2014-Oct-01 21:24N 22°34' E 114°15'0 0.0
2014-Oct-01 20:30N 22°34' E 114°15'0 0.0
2014-Oct-01 19:06N 22°34' E 114°15'0 0.0
2014-Oct-01 18:30N 22°34' E 114°15'0 0.0
2014-Oct-01 17:30N 22°34' E 114°15'0 0.0
2014-Oct-01 16:18N 22°34' E 114°15'0 0.0
2014-Oct-01 15:24N 22°34' E 114°15'0 0.0
2014-Oct-01 14:24N 22°34' E 114°15'0 0.0
2014-Oct-01 13:30N 22°34' E 114°15'0 0.4
2014-Oct-01 12:30N 22°34' E 114°16'20913.8
2014-Sep-30 21:20N 23°35' E 117°53'1418.0
2014-Sep-30 20:33N 23°45' E 118°03'1817.7
2014-Sep-30 19:33N 23°59' E 118°15'1413.9
2014-Sep-30 18:33N 24°12' E 118°16'1312.9
2014-Sep-30 17:32N 24°23' E 118°07'9 9.1
2014-Sep-30 16:33N 24°27' E 117°58'0 0.0
2014-Sep-30 15:25N 24°27' E 117°58'0 0.0
2014-Sep-30 14:22N 24°27' E 117°58'0 0.0
2014-Sep-30 13:12N 24°27' E 117°58'0 0.0
2014-Sep-30 10:10N 24°27' E 117°58'0 0.0
2014-Sep-30 09:22N 24°27' E 117°58'0 0.0
2014-Sep-30 08:28N 24°27' E 117°58'0 0.0
2014-Sep-30 07:28N 24°27' E 117°58'2 2.4
2014-Sep-30 06:32N 24°26' E 118°01'1110.7
2014-Sep-30 05:33N 24°20' E 118°10'10 9.9
2014-Sep-30 04:33N 24°13' E 118°17'1413.8
2014-Sep-30 03:33N 24°17' E 118°32'1514.7
2014-Sep-30 02:33N 24°21' E 118°47'2014.9
2014-Sep-30 01:12N 24°29' E 119°07'1015.2
2014-Sep-30 00:33N 24°34' E 119°16'8714.6
2014-Sep-29 18:33N 25°31' E 120°30'26614.8
2014-Sep-29 00:33N 29°36' E 122°25'1313.2
2014-Sep-28 23:33N 29°47' E 122°16'1211.9
2014-Sep-28 22:34N 29°55' E 122°06'3 2.5
2014-Sep-28 21:22N 29°53' E 122°03'0 0.0
2014-Sep-28 20:31N 29°53' E 122°03'0 0.0
2014-Sep-28 19:07N 29°53' E 122°03'0 0.0
2014-Sep-28 18:25N 29°53' E 122°03'0 0.0
2014-Sep-28 16:31N 29°53' E 122°03'0 0.0
2014-Sep-28 14:07N 29°53' E 122°03'0 0.0
2014-Sep-28 13:31N 29°53' E 122°03'0 0.0
2014-Sep-28 12:25N 29°53' E 122°03'0 0.0
2014-Sep-28 11:33N 29°53' E 122°03'7 6.7
2014-Sep-28 10:33N 29°55' E 122°11'1111.3
2014-Sep-28 09:33N 29°45' E 122°18'5 0.7
2014-Sep-28 02:32N 29°45' E 122°24'9 8.9
2014-Sep-28 01:33N 29°46' E 122°34'1413.5
2014-Sep-28 00:33N 29°52' E 122°48'1513.3
2014-Sep-27 23:27N 29°59' E 123°03'1612.5
2014-Sep-27 22:10N 30°15' E 122°60'914.6
2014-Sep-27 21:33N 30°21' E 122°51'1414.3
2014-Sep-27 20:32N 30°28' E 122°37'1514.9
2014-Sep-27 19:33N 30°32' E 122°21'1414.0
2014-Sep-27 18:33N 30°36' E 122°05'0 0.2
2014-Sep-27 17:31N 30°36' E 122°05'0 0.0
2014-Sep-27 16:30N 30°36' E 122°05'0 0.0
2014-Sep-27 15:33N 30°36' E 122°05'0 0.0
2014-Sep-27 14:30N 30°36' E 122°05'0 0.0
2014-Sep-27 13:29N 30°36' E 122°05'0 0.0
2014-Sep-27 12:27N 30°36' E 122°05'0 0.0
2014-Sep-27 11:31N 30°36' E 122°05'0 0.0
2014-Sep-27 10:30N 30°36' E 122°05'0 0.0
2014-Sep-27 09:33N 30°36' E 122°05'0 0.3
2014-Sep-27 08:28N 30°36' E 122°05'1011.1
2014-Sep-27 07:33N 30°33' E 122°17'1111.2
2014-Sep-27 06:33N 30°31' E 122°29'1 0.9
2014-Sep-27 05:04N 30°30' E 122°31'0 0.1
2014-Sep-27 00:04N 30°30' E 122°31'0 0.0
2014-Sep-26 20:04N 30°30' E 122°31'0 0.0
2014-Sep-26 18:28N 30°30' E 122°31'0 0.1
2014-Sep-26 15:04N 30°30' E 122°31'0 0.1
2014-Sep-26 14:10N 30°30' E 122°31'0 0.2
2014-Sep-26 12:04N 30°30' E 122°31'0 0.0
2014-Sep-26 11:16N 30°30' E 122°31'  

Dump ship's entire track history